Ridge Farm, IL (61870)

11:10 PM CDT on August 31, 2016 (GMT -0500)
Vermilion County Emergency Management Agency | | Change Station

Elev 655 ft 40.08 °N, 87.63 °W | Updated 5 seconds ago

Clear
Clear
65.1 °F
Feels Like 65.1 °F
N
3.5
Wind Variable Wind from North
Gusts 3.5 mph

Today
High -- | Low -- °F
--% Chance of Precip.
Yesterday
High -- | Low -- °F
Precip. -- in
Pressure 30.07 in
Visibility 10.0 miles
Clouds Clear
Dew Point 65 °F
Humidity 100%
Rainfall 0.00 in
Snow Depth Not available.
6:18 AM 7:22 PM
Waning Crescent, 0% visible
METAR KPRG 010355Z AUTO 00000KT 10SM CLR 18/16 A3007 RMK AO2 T01790160
Pressure 30.07 in
Visibility 10.0 miles
Clouds Clear
Dew Point 65 °F
Humidity 100%
Rainfall 0.00 in
Snow Depth Not available.
6:18 AM 7:22 PM
Waning Crescent, 0% visible
METAR KPRG 010355Z AUTO 00000KT 10SM CLR 18/16 A3007 RMK AO2 T01790160

10-Day Weather Forecast

Almanac

Astronomy

Aug. 31, 2016 Rise Set
Actual Time
Civil Twilight
Nautical Twilight
Astronomical Twilight
Moon
Length of Visible Light
Length of Day
Tomorrow will be .
, % of the Moon is Illuminated

Today's Extremes

State Highs State Lows

Community

WunderPhotos

Upload Photos

1,936,293 photos uploaded!

WunderBlog® & News

Nearby

Air Quality

  Air Quality AQ Index Pollutant
Not available.

Snow Depth

Station Depth Elevation

Earthquake Activity

City Distance Mag. Time & Date
Minimum magnitude displayed is 2.5.

Coastal Water Temperatures

Place Temperature

Stations

Nearby Weather Stations

Station Location Temp. Windchill Dew Point Humidity Wind Precip. Elev Updated Type
                   

Watches & Warnings

There are currently no watches in effect.